Time;durP1;ratioP1;P1;durP2;ratioP2;P2;SDS_P1;SDS_P2;PMS_P1;PMS_P2;Temp;Humidity;BMP_temperature;BMP_pressure;BME280_temperature;BME280_humidity;BME280_pressure;Samples;Min_cycle;Max_cycle;Signal;HPM_P1;HPM_P2
2023/03/24 00:00:12;;;;;;;;;;;;;;;15.65;100.00;98464.28;5036953;28;19917;-50
2023/03/24 00:02:40;;;;;;;;;;;;;;;15.14;100.00;98411.19;5038726;28;20380;-49
2023/03/24 00:05:05;;;;;;;;;;;;;;;14.54;100.00;98480.31;5036514;28;19935;-49
2023/03/24 00:07:32;;;;;;;;;;;;;;;15.27;100.00;98572.94;5038242;28;19920;-51
2023/03/24 00:09:57;;;;;;;;;;;;;;;14.97;100.00;98571.19;5037817;28;20377;-50
2023/03/24 00:12:24;;;;;;;;;;;;;;;15.04;100.00;98559.56;5038010;28;19928;-49
2023/03/24 00:14:53;;;;;;;;;;;;;;;14.55;100.00;98554.56;5037266;28;19917;-49
2023/03/24 00:17:18;;;;;;;;;;;;;;;14.98;100.00;98614.34;5038085;28;20007;-49
2023/03/24 00:19:44;;;;;;;;;;;;;;;15.24;100.00;98632.81;5037487;28;20582;-48
2023/03/24 00:22:13;;;;;;;;;;;;;;;15.43;100.00;98604.03;5038032;28;19931;-50
2023/03/24 00:24:39;;;;;;;;;;;;;;;15.26;100.00;98550.53;5036171;28;19939;-50
2023/03/24 00:27:04;;;;;;;;;;;;;;;14.63;100.00;98583.44;5037602;28;20027;-49
2023/03/24 00:29:30;;;;;;;;;;;;;;;15.44;100.00;98600.50;5036017;28;20000;-50
2023/03/24 00:31:55;;;;;;;;;;;;;;;14.31;100.00;98494.53;5038353;28;19962;-48
2023/03/24 00:34:20;;;;;;;;;;;;;;;15.67;100.00;98638.13;5036911;28;19913;-49
2023/03/24 00:36:49;;;;;;;;;;;;;;;15.39;100.00;98585.19;5038304;28;19924;-49
2023/03/24 00:39:16;;;;;;;;;;;;;;;15.40;100.00;98547.97;5037778;28;19951;-50
2023/03/24 00:41:43;;;;;;;;;;;;;;;15.04;100.00;98531.03;5038071;28;20370;-52
2023/03/24 00:44:16;;;;;;;;;;;;;;;15.09;100.00;98555.88;5034438;28;20008;-50
2023/03/24 00:46:44;;;;;;;;;;;;;;;15.54;100.00;98580.06;5035984;28;20543;-49
2023/03/24 00:49:11;;;;;;;;;;;;;;;15.48;100.00;98545.72;5037014;28;20040;-49
2023/03/24 00:51:37;;;;;;;;;;;;;;;15.25;100.00;98481.41;5036866;28;19920;-49
2023/03/24 00:54:02;;;;;;;;;;;;;;;15.17;100.00;98504.41;5037290;28;19951;-52
2023/03/24 00:56:29;;;;;;;;;;;;;;;15.39;100.00;98567.03;5037014;28;19960;-50
2023/03/24 00:58:56;;;;;;;;;;;;;;;15.59;100.00;98546.88;5037004;28;20101;-52
2023/03/24 01:01:22;;;;;;;;;;;;;;;15.19;100.00;98546.63;5036450;28;20368;-52
2023/03/24 01:03:49;;;;;;;;;;;;;;;14.57;100.00;98563.09;5036994;28;20336;-50
2023/03/24 01:06:15;;;;;;;;;;;;;;;14.47;100.00;98660.31;5035380;28;19967;-51
2023/03/24 01:08:40;;;;;;;;;;;;;;;15.23;100.00;98707.19;5037781;28;20366;-50
2023/03/24 01:11:06;;;;;;;;;;;;;;;15.42;100.00;98694.03;5036580;28;20709;-51
2023/03/24 01:13:33;;;;;;;;;;;;;;;15.54;100.00;98590.44;5035970;28;19917;-50
2023/03/24 01:15:58;;;;;;;;;;;;;;;15.76;100.00;98569.25;5036871;28;19916;-52
2023/03/24 01:18:23;;;;;;;;;;;;;;;15.71;100.00;98486.44;5035843;28;20205;-49
2023/03/24 01:20:49;;;;;;;;;;;;;;;15.35;100.00;98479.09;5035534;28;19917;-51
2023/03/24 01:23:19;;;;;;;;;;;;;;;15.80;100.00;98495.44;5037174;28;20268;-51
2023/03/24 01:25:46;;;;;;;;;;;;;;;15.68;100.00;98478.81;5035961;28;20204;-51
2023/03/24 01:28:12;;;;;;;;;;;;;;;15.40;100.00;98417.41;5037383;28;19924;-49
2023/03/24 01:30:37;;;;;;;;;;;;;;;14.64;100.00;98449.53;5036004;28;20437;-49
2023/03/24 01:33:03;;;;;;;;;;;;;;;15.30;100.00;98504.47;5036278;28;19916;-50
2023/03/24 01:35:28;;;;;;;;;;;;;;;15.43;100.00;98506.25;5034614;28;20375;-49
2023/03/24 01:37:53;;;;;;;;;;;;;;;15.48;100.00;98512.00;5037481;28;19920;-50
2023/03/24 01:40:20;;;;;;;;;;;;;;;15.41;100.00;98482.16;5035927;28;19917;-50
2023/03/24 01:42:45;;;;;;;;;;;;;;;15.75;100.00;98467.16;5036180;28;20015;-50
2023/03/24 01:45:29;;;;;;;;;;;;;;;14.97;100.00;98448.50;5033285;28;19977;-49
2023/03/24 01:47:55;;;;;;;;;;;;;;;15.38;100.00;98534.25;5036673;28;20385;-49
2023/03/24 01:50:20;;;;;;;;;;;;;;;15.31;100.00;98538.13;5036613;28;19920;-49
2023/03/24 01:52:46;;;;;;;;;;;;;;;15.02;100.00;98600.28;5035467;28;19993;-49
2023/03/24 01:55:14;;;;;;;;;;;;;;;15.48;100.00;98623.59;5033145;28;19916;-51
2023/03/24 01:57:45;;;;;;;;;;;;;;;15.31;100.00;98592.63;5034732;28;19939;-52
2023/03/24 02:00:11;;;;;;;;;;;;;;;15.12;100.00;98579.03;5034147;28;20071;-50
2023/03/24 02:02:37;;;;;;;;;;;;;;;14.83;100.00;98556.44;5035981;28;19925;-51
2023/03/24 02:05:04;;;;;;;;;;;;;;;14.90;100.00;98577.66;5033811;28;19924;-50
2023/03/24 02:07:40;;;;;;;;;;;;;;;15.27;100.00;98594.53;5034647;28;20226;-52
2023/03/24 02:10:08;;;;;;;;;;;;;;;15.77;100.00;98608.09;5034151;28;19924;-49
2023/03/24 02:12:33;;;;;;;;;;;;;;;16.05;100.00;98567.47;5035629;28;19931;-50
2023/03/24 02:14:58;;;;;;;;;;;;;;;15.70;100.00;98539.28;5035591;28;19917;-50
2023/03/24 02:17:36;;;;;;;;;;;;;;;15.70;100.00;98554.84;5036720;28;19916;-51
2023/03/24 02:20:08;;;;;;;;;;;;;;;15.91;100.00;98516.38;5035930;28;19999;-51
2023/03/24 02:22:33;;;;;;;;;;;;;;;15.46;100.00;98521.66;5035023;28;20039;-50
2023/03/24 02:25:04;;;;;;;;;;;;;;;15.16;100.00;98500.13;5034740;28;20301;-51
2023/03/24 02:27:50;;;;;;;;;;;;;;;15.02;100.00;98522.50;5035151;28;20378;-51
2023/03/24 02:30:25;;;;;;;;;;;;;;;15.34;100.00;98548.31;5034327;28;19932;-52
2023/03/24 02:33:20;;;;;;;;;;;;;;;15.46;100.00;98573.56;5033710;28;19927;-50
2023/03/24 02:35:51;;;;;;;;;;;;;;;15.33;100.00;98608.94;5024608;28;20190;-51
2023/03/24 02:38:25;;;;;;;;;;;;;;;14.83;100.00;98599.66;5035552;28;20452;-52
2023/03/24 02:41:03;;;;;;;;;;;;;;;15.37;100.00;98664.06;5035404;28;20337;-52
2023/03/24 02:43:35;;;;;;;;;;;;;;;15.03;100.00;98682.38;5031847;28;19925;-51
2023/03/24 02:46:11;;;;;;;;;;;;;;;14.90;100.00;98689.16;5034248;28;20040;-52
2023/03/24 02:48:40;;;;;;;;;;;;;;;14.79;100.00;98694.91;5035628;28;19980;-50
2023/03/24 02:51:08;;;;;;;;;;;;;;;14.64;100.00;98725.09;5034152;28;20062;-50
2023/03/24 02:53:52;;;;;;;;;;;;;;;15.63;100.00;98771.59;5038546;28;20247;-51
2023/03/24 02:56:23;;;;;;;;;;;;;;;15.12;100.00;98713.88;5039564;28;19920;-49
2023/03/24 02:58:51;;;;;;;;;;;;;;;15.51;100.00;98707.38;5038744;28;19917;-50
2023/03/24 03:01:30;;;;;;;;;;;;;;;14.81;100.00;98664.56;5038058;28;20352;-49
2023/03/24 03:03:56;;;;;;;;;;;;;;;15.47;100.00;98710.16;5038927;28;20709;-50
2023/03/24 03:06:26;;;;;;;;;;;;;;;15.00;100.00;98685.13;5036734;28;20422;-52
2023/03/24 03:08:51;;;;;;;;;;;;;;;15.21;100.00;98651.13;5038818;28;19916;-49
2023/03/24 03:11:17;;;;;;;;;;;;;;;15.22;100.00;98679.56;5039568;28;19923;-50
2023/03/24 03:13:43;;;;;;;;;;;;;;;14.46;100.00;98642.25;5037479;28;19916;-51
2023/03/24 03:16:33;;;;;;;;;;;;;;;14.64;100.00;98704.34;5037669;28;20055;-48
2023/03/24 03:19:00;;;;;;;;;;;;;;;15.32;100.00;98757.72;5038073;28;19923;-49
2023/03/24 03:21:26;;;;;;;;;;;;;;;15.88;100.00;98687.97;5037636;28;19925;-53
2023/03/24 03:24:11;;;;;;;;;;;;;;;15.66;100.00;98610.47;5037621;28;19923;-51
2023/03/24 03:26:36;;;;;;;;;;;;;;;15.33;100.00;98580.38;5037299;28;19967;-49
2023/03/24 03:29:10;;;;;;;;;;;;;;;15.77;100.00;98560.53;5039349;28;19920;-48
2023/03/24 03:31:44;;;;;;;;;;;;;;;15.43;100.00;98498.47;5037294;28;19952;-51
2023/03/24 03:34:15;;;;;;;;;;;;;;;15.65;100.00;98551.69;5035923;28;20283;-49
2023/03/24 03:36:45;;;;;;;;;;;;;;;15.69;100.00;98546.25;5038503;28;20431;-51
2023/03/24 03:39:14;;;;;;;;;;;;;;;15.88;100.00;98481.06;5037222;28;20051;-52
2023/03/24 03:41:40;;;;;;;;;;;;;;;15.98;100.00;98457.94;5038684;28;19980;-49
2023/03/24 03:44:05;;;;;;;;;;;;;;;15.83;100.00;98454.56;5035110;28;19929;-49
2023/03/24 03:46:31;;;;;;;;;;;;;;;15.83;100.00;98419.97;5038226;28;20412;-50
2023/03/24 03:48:56;;;;;;;;;;;;;;;16.25;100.00;98374.81;5038391;28;19927;-50
2023/03/24 03:51:21;;;;;;;;;;;;;;;15.57;100.00;98343.69;5037340;28;19921;-50
2023/03/24 03:53:48;;;;;;;;;;;;;;;15.57;100.00;98346.28;5037189;28;19917;-52
2023/03/24 03:56:17;;;;;;;;;;;;;;;15.60;100.00;98364.25;5036828;28;20059;-50
2023/03/24 03:58:45;;;;;;;;;;;;;;;15.96;100.00;98362.88;5036195;28;19921;-48
2023/03/24 04:01:12;;;;;;;;;;;;;;;15.51;100.00;98325.91;5036848;28;20322;-52
2023/03/24 04:03:48;;;;;;;;;;;;;;;16.06;100.00;98361.38;5034196;28;19950;-49
2023/03/24 04:06:16;;;;;;;;;;;;;;;15.90;100.00;98330.38;5037376;28;19917;-52
2023/03/24 04:09:00;;;;;;;;;;;;;;;15.62;100.00;98344.22;5037408;28;19920;-51
2023/03/24 04:11:34;;;;;;;;;;;;;;;15.97;100.00;98348.97;5037176;28;19924;-52
2023/03/24 04:14:15;;;;;;;;;;;;;;;15.91;100.00;98338.97;5037871;28;19913;-52
2023/03/24 04:16:59;;;;;;;;;;;;;;;15.88;100.00;98335.66;5037351;28;19952;-49
2023/03/24 04:19:43;;;;;;;;;;;;;;;16.30;100.00;98297.38;5036583;28;19925;-50
2023/03/24 04:22:19;;;;;;;;;;;;;;;16.22;100.00;98265.91;5038409;28;19916;-52
2023/03/24 04:24:44;;;;;;;;;;;;;;;15.87;100.00;98237.06;5036145;28;19967;-49
2023/03/24 04:27:37;;;;;;;;;;;;;;;15.81;100.00;98258.25;5038215;28;19917;-49
2023/03/24 04:30:02;;;;;;;;;;;;;;;16.03;100.00;98294.03;5036587;28;19920;-49
2023/03/24 04:32:34;;;;;;;;;;;;;;;15.98;100.00;98267.53;5037140;28;19917;-52
2023/03/24 04:35:02;;;;;;;;;;;;;;;15.43;100.00;98277.09;5036003;28;19998;-52
2023/03/24 04:37:31;;;;;;;;;;;;;;;15.93;100.00;98304.19;5035146;28;19917;-49
2023/03/24 04:39:57;;;;;;;;;;;;;;;15.94;100.00;98281.66;5036275;28;19920;-49
2023/03/24 04:42:44;;;;;;;;;;;;;;;16.43;100.00;98252.41;5036239;28;19916;-52
2023/03/24 04:45:09;;;;;;;;;;;;;;;15.93;100.00;98254.03;5033475;28;19916;-51
2023/03/24 04:47:55;;;;;;;;;;;;;;;16.17;100.00;98235.97;5033982;28;19924;-51
2023/03/24 04:50:29;;;;;;;;;;;;;;;16.41;100.00;98191.91;5037222;28;19920;-50
2023/03/24 04:52:55;;;;;;;;;;;;;;;16.45;100.00;98198.56;5037715;28;19928;-49
2023/03/24 04:55:26;;;;;;;;;;;;;;;16.51;100.00;98172.97;5037078;28;19921;-52
2023/03/24 04:57:52;;;;;;;;;;;;;;;16.43;100.00;98146.69;5035714;28;19923;-50
2023/03/24 05:00:17;;;;;;;;;;;;;;;15.83;100.00;98106.63;5036527;28;19920;-51
2023/03/24 05:02:44;;;;;;;;;;;;;;;16.31;100.00;98150.13;5036979;28;19924;-52
2023/03/24 05:05:09;;;;;;;;;;;;;;;15.94;100.00;98147.44;5036789;28;20179;-49
2023/03/24 05:07:34;;;;;;;;;;;;;;;15.80;100.00;98169.13;5036877;28;19944;-50
2023/03/24 05:10:00;;;;;;;;;;;;;;;16.22;100.00;98189.75;5036697;28;19974;-50
2023/03/24 05:12:25;;;;;;;;;;;;;;;16.17;100.00;98200.44;5036343;28;19928;-51
2023/03/24 05:14:50;;;;;;;;;;;;;;;15.98;100.00;98189.63;5034706;28;20266;-52
2023/03/24 05:17:15;;;;;;;;;;;;;;;16.24;100.00;98240.66;5037062;28;20356;-49
2023/03/24 05:19:41;;;;;;;;;;;;;;;16.10;100.00;98314.31;5035557;28;20266;-51
2023/03/24 05:22:06;;;;;;;;;;;;;;;15.17;100.00;98247.63;5037530;28;20189;-52
2023/03/24 05:24:31;;;;;;;;;;;;;;;15.46;100.00;98357.31;5035204;28;19940;-49
2023/03/24 05:26:56;;;;;;;;;;;;;;;15.40;100.00;98394.88;5035767;28;19977;-51
2023/03/24 05:29:21;;;;;;;;;;;;;;;14.77;100.00;98548.16;5035972;28;20028;-50
2023/03/24 05:31:47;;;;;;;;;;;;;;;15.22;100.00;98673.56;5035590;28;20020;-51
2023/03/24 05:34:12;;;;;;;;;;;;;;;14.86;100.00;98749.84;5034882;28;20369;-52
2023/03/24 05:36:37;;;;;;;;;;;;;;;14.69;100.00;98793.97;5034712;28;20343;-52
2023/03/24 05:39:02;;;;;;;;;;;;;;;15.12;100.00;98901.50;5033585;28;20421;-51
2023/03/24 05:41:28;;;;;;;;;;;;;;;14.51;100.00;98920.97;5035894;28;19924;-51
2023/03/24 05:43:53;;;;;;;;;;;;;;;15.45;100.00;99018.25;5031250;28;19913;-50
2023/03/24 05:46:18;;;;;;;;;;;;;;;15.24;100.00;99047.88;5036190;28;19916;-48
2023/03/24 05:48:43;;;;;;;;;;;;;;;14.28;100.00;99012.75;5035534;28;20420;-50
2023/03/24 05:51:09;;;;;;;;;;;;;;;14.13;100.00;99115.31;5035134;28;19927;-49
2023/03/24 05:53:34;;;;;;;;;;;;;;;13.58;94.39;99177.22;5034442;28;19920;-52
2023/03/24 05:55:59;;;;;;;;;;;;;;;13.68;82.61;99250.97;5035391;28;20515;-50
2023/03/24 05:58:25;;;;;;;;;;;;;;;13.54;74.91;99334.34;5036492;28;19920;-48
2023/03/24 06:00:50;;;;;;;;;;;;;;;14.10;68.01;99418.47;5035715;28;19923;-48
2023/03/24 06:03:16;;;;;;;;;;;;;;;13.87;66.77;99459.94;5036167;28;19916;-47
2023/03/24 06:05:44;;;;;;;;;;;;;;;14.08;62.66;99508.31;5034532;28;19936;-48
2023/03/24 06:08:10;;;;;;;;;;;;;;;14.12;62.92;99550.50;5034947;28;19917;-48
2023/03/24 06:10:35;;;;;;;;;;;;;;;14.04;67.25;99548.19;5034483;28;19994;-49
2023/03/24 06:13:00;;;;;;;;;;;;;;;14.58;65.43;99582.44;5035100;28;19943;-48
2023/03/24 06:15:29;;;;;;;;;;;;;;;14.20;70.46;99570.00;5034389;28;20348;-50
2023/03/24 06:17:55;;;;;;;;;;;;;;;13.91;72.72;99563.34;5035230;28;19913;-48
2023/03/24 06:20:20;;;;;;;;;;;;;;;13.62;73.95;99560.97;5033352;28;19921;-49
2023/03/24 06:22:49;;;;;;;;;;;;;;;14.22;70.90;99594.09;5034636;28;20133;-50
2023/03/24 06:25:15;;;;;;;;;;;;;;;13.74;76.10;99566.53;5034268;28;19916;-49
2023/03/24 06:27:41;;;;;;;;;;;;;;;13.62;76.43;99573.91;5033886;28;20675;-49
2023/03/24 06:30:07;;;;;;;;;;;;;;;13.70;76.19;99574.47;5035650;28;19924;-48
2023/03/24 06:32:32;;;;;;;;;;;;;;;13.65;77.11;99577.22;5034651;28;20408;-48
2023/03/24 06:34:57;;;;;;;;;;;;;;;13.48;78.17;99585.56;5035056;28;19924;-50
2023/03/24 06:37:23;;;;;;;;;;;;;;;13.52;80.22;99565.59;5034721;28;20259;-49
2023/03/24 06:39:48;;;;;;;;;;;;;;;13.78;80.34;99583.66;5033868;28;19916;-50
2023/03/24 06:42:14;;;;;;;;;;;;;;;13.90;81.87;99591.88;5034623;28;19916;-50
2023/03/24 06:44:40;;;;;;;;;;;;;;;13.86;87.43;99564.41;5032034;28;20237;-49
2023/03/24 06:47:05;;;;;;;;;;;;;;;13.84;91.20;99532.53;5034831;28;19956;-48
2023/03/24 06:49:31;;;;;;;;;;;;;;;13.79;93.68;99507.66;5034872;28;20221;-48
2023/03/24 06:51:56;;;;;;;;;;;;;;;13.69;96.77;99480.44;5034522;28;19927;-48
2023/03/24 06:54:21;;;;;;;;;;;;;;;14.03;98.33;99455.88;5034591;28;19932;-48
2023/03/24 06:56:46;;;;;;;;;;;;;;;14.33;100.00;99450.38;5035186;28;19916;-48
2023/03/24 06:59:12;;;;;;;;;;;;;;;13.65;100.00;99406.38;5033160;28;19919;-49
2023/03/24 07:01:37;;;;;;;;;;;;;;;13.72;100.00;99433.72;5034757;28;19913;-51
2023/03/24 07:04:03;;;;;;;;;;;;;;;14.22;100.00;99455.97;5032176;28;19917;-48
2023/03/24 07:06:30;;;;;;;;;;;;;;;14.07;100.00;99397.88;5034239;28;19917;-49
2023/03/24 07:08:56;;;;;;;;;;;;;;;13.74;100.00;99325.78;5034738;28;19960;-48
2023/03/24 07:11:22;;;;;;;;;;;;;;;13.19;100.00;99282.19;5034703;28;20553;-50
2023/03/24 07:13:47;;;;;;;;;;;;;;;12.86;100.00;99286.88;5034185;28;19921;-47
2023/03/24 07:16:12;;;;;;;;;;;;;;;12.37;100.00;99287.81;5034830;28;20377;-47
2023/03/24 07:18:37;;;;;;;;;;;;;;;12.48;100.00;99307.19;5034294;28;19917;-47
2023/03/24 07:21:03;;;;;;;;;;;;;;;12.38;100.00;99310.97;5034994;28;19923;-48
2023/03/24 07:23:31;;;;;;;;;;;;;;;12.50;100.00;99312.31;5034178;28;21570;-48
2023/03/24 07:25:56;;;;;;;;;;;;;;;12.66;100.00;99307.44;5034437;28;19917;-48
2023/03/24 07:28:21;;;;;;;;;;;;;;;12.60;100.00;99289.56;5036260;28;20289;-48
2023/03/24 07:30:47;;;;;;;;;;;;;;;12.66;100.00;99279.03;5034647;28;20022;-48
2023/03/24 07:33:12;;;;;;;;;;;;;;;12.87;100.00;99246.38;5034412;28;20004;-48
2023/03/24 07:35:38;;;;;;;;;;;;;;;13.04;100.00;99237.97;5030536;28;20067;-48
2023/03/24 07:38:03;;;;;;;;;;;;;;;12.67;100.00;99204.03;5036104;28;19924;-49
2023/03/24 07:40:29;;;;;;;;;;;;;;;13.09;100.00;99210.19;5038322;28;19924;-49
2023/03/24 07:42:54;;;;;;;;;;;;;;;13.31;100.00;99195.53;5039179;28;19928;-49
2023/03/24 07:45:20;;;;;;;;;;;;;;;12.96;100.00;99179.66;5035087;28;19921;-48
2023/03/24 07:47:45;;;;;;;;;;;;;;;12.87;100.00;99143.81;5038463;28;19963;-47
2023/03/24 07:50:11;;;;;;;;;;;;;;;13.48;100.00;99165.56;5037008;28;19977;-47
2023/03/24 07:52:37;;;;;;;;;;;;;;;13.54;100.00;99090.28;5038109;28;20095;-48
2023/03/24 07:55:02;;;;;;;;;;;;;;;13.46;100.00;99007.00;5037439;28;19951;-49
2023/03/24 07:57:28;;;;;;;;;;;;;;;13.55;100.00;99015.19;5038674;28;19924;-50
2023/03/24 07:59:53;;;;;;;;;;;;;;;13.50;100.00;98985.22;5037348;28;20426;-47
2023/03/24 08:02:18;;;;;;;;;;;;;;;13.38;100.00;98973.69;5038645;28;20380;-48
2023/03/24 08:04:44;;;;;;;;;;;;;;;13.58;100.00;98941.75;5036873;28;20378;-48
2023/03/24 08:07:11;;;;;;;;;;;;;;;14.44;100.00;98888.50;5038552;28;19917;-49
2023/03/24 08:09:36;;;;;;;;;;;;;;;14.68;100.00;98794.91;5037590;28;20293;-49
2023/03/24 08:12:01;;;;;;;;;;;;;;;14.71;100.00;98711.78;5038504;28;19921;-48
2023/03/24 08:14:26;;;;;;;;;;;;;;;14.31;100.00;98628.38;5037234;28;19921;-48
2023/03/24 08:16:52;;;;;;;;;;;;;;;14.13;100.00;98568.03;5037528;28;19913;-50
2023/03/24 08:19:17;;;;;;;;;;;;;;;13.67;100.00;98496.25;5037066;28;19923;-48
2023/03/24 08:21:42;;;;;;;;;;;;;;;13.75;100.00;98470.81;5037003;28;19920;-48
2023/03/24 08:24:07;;;;;;;;;;;;;;;14.67;100.00;98454.53;5036791;28;20023;-47
2023/03/24 08:26:34;;;;;;;;;;;;;;;14.05;100.00;98343.22;5037452;28;19924;-49
2023/03/24 08:28:59;;;;;;;;;;;;;;;14.52;100.00;98364.69;5036893;28;19925;-51
2023/03/24 08:31:30;;;;;;;;;;;;;;;14.11;100.00;98270.34;5037090;28;20285;-49
2023/03/24 08:33:55;;;;;;;;;;;;;;;14.23;100.00;98233.38;5036678;28;20575;-49
2023/03/24 08:36:20;;;;;;;;;;;;;;;13.23;100.00;98188.22;5037907;28;20023;-49
2023/03/24 08:38:46;;;;;;;;;;;;;;;14.33;100.00;98241.44;5036968;28;20319;-49
2023/03/24 08:41:12;;;;;;;;;;;;;;;14.31;100.00;98146.63;5037656;28;20051;-49
2023/03/24 08:43:37;;;;;;;;;;;;;;;14.78;100.00;98150.63;5033185;28;20019;-49
2023/03/24 08:46:05;;;;;;;;;;;;;;;14.54;100.00;98129.66;5036070;28;19916;-48
2023/03/24 08:48:31;;;;;;;;;;;;;;;15.06;100.00;98093.53;5036885;28;19924;-49
2023/03/24 08:50:56;;;;;;;;;;;;;;;14.56;100.00;98043.16;5036687;28;19912;-49
2023/03/24 08:53:21;;;;;;;;;;;;;;;14.60;100.00;98075.75;5037443;28;20255;-49
2023/03/24 08:55:47;;;;;;;;;;;;;;;15.12;100.00;98029.22;5036084;28;20011;-49
2023/03/24 08:58:16;;;;;;;;;;;;;;;14.36;100.00;97919.25;5036614;28;20047;-50
2023/03/24 09:00:42;;;;;;;;;;;;;;;14.77;100.00;97939.06;5038071;28;19970;-49
2023/03/24 09:03:08;;;;;;;;;;;;;;;14.88;100.00;97902.88;5037450;28;19916;-49
2023/03/24 09:05:33;;;;;;;;;;;;;;;15.88;100.00;97873.47;5035611;28;20446;-50
2023/03/24 09:08:00;;;;;;;;;;;;;;;15.55;100.00;97829.13;5037162;28;19928;-49
2023/03/24 09:10:25;;;;;;;;;;;;;;;14.44;100.00;97805.59;5037385;28;19920;-50
2023/03/24 09:12:50;;;;;;;;;;;;;;;14.91;100.00;97804.16;5037466;28;19927;-49
2023/03/24 09:15:16;;;;;;;;;;;;;;;15.86;100.00;97776.69;5036376;28;19963;-49
2023/03/24 09:17:41;;;;;;;;;;;;;;;16.39;100.00;97741.66;5036136;28;20003;-49
2023/03/24 09:20:11;;;;;;;;;;;;;;;15.50;100.00;97711.88;5036874;28;20377;-51
2023/03/24 09:22:40;;;;;;;;;;;;;;;16.07;100.00;97750.09;5036906;28;19916;-51
2023/03/24 09:25:05;;;;;;;;;;;;;;;15.76;100.00;97754.09;5035153;28;19927;-49
2023/03/24 09:27:31;;;;;;;;;;;;;;;16.24;100.00;97694.28;5036565;28;19917;-50
2023/03/24 09:29:56;;;;;;;;;;;;;;;16.12;100.00;97714.19;5036356;28;19917;-49
2023/03/24 09:32:21;;;;;;;;;;;;;;;15.80;100.00;97735.59;5036248;28;19940;-48
2023/03/24 09:34:46;;;;;;;;;;;;;;;15.88;100.00;97681.34;5035875;28;19912;-49
2023/03/24 09:37:12;;;;;;;;;;;;;;;15.43;100.00;97720.09;5035930;28;19924;-49
2023/03/24 09:39:37;;;;;;;;;;;;;;;15.72;100.00;97735.34;5036396;28;19920;-52
2023/03/24 09:42:04;;;;;;;;;;;;;;;15.41;100.00;97749.69;5035474;28;20335;-50
2023/03/24 09:44:33;;;;;;;;;;;;;;;15.32;100.00;97756.34;5031881;28;19916;-52
2023/03/24 09:47:17;;;;;;;;;;;;;;;15.08;100.00;97733.00;5035251;28;20341;-51
2023/03/24 09:49:42;;;;;;;;;;;;;;;15.82;100.00;97684.41;5035507;28;20139;-51
2023/03/24 09:52:11;;;;;;;;;;;;;;;14.95;100.00;97707.09;5034920;28;19920;-50
2023/03/24 09:54:40;;;;;;;;;;;;;;;15.67;100.00;97721.84;5033539;28;19917;-50
2023/03/24 09:57:08;;;;;;;;;;;;;;;15.26;100.00;97720.50;5035778;28;19921;-50
2023/03/24 09:59:37;;;;;;;;;;;;;;;16.31;100.00;97678.09;5033987;28;19917;-50
2023/03/24 10:02:08;;;;;;;;;;;;;;;16.39;100.00;97674.91;5033556;28;19921;-52
2023/03/24 10:04:34;;;;;;;;;;;;;;;16.33;100.00;97639.03;5034008;28;19924;-52
2023/03/24 10:07:01;;;;;;;;;;;;;;;15.45;100.00;97595.47;5035475;28;20184;-50
2023/03/24 10:09:27;;;;;;;;;;;;;;;15.14;100.00;97646.16;5034054;28;19920;-52
2023/03/24 10:12:11;;;;;;;;;;;;;;;17.01;100.00;97649.34;5034266;28;19917;-50
2023/03/24 10:14:46;;;;;;;;;;;;;;;16.31;100.00;97654.72;5033585;28;20405;-52
2023/03/24 10:17:24;;;;;;;;;;;;;;;16.79;100.00;97619.00;5036418;28;20362;-52
2023/03/24 10:20:06;;;;;;;;;;;;;;;15.74;100.00;97621.88;5033861;28;20374;-53
2023/03/24 10:22:38;;;;;;;;;;;;;;;15.27;100.00;97633.97;5035524;28;19921;-53
2023/03/24 10:25:07;;;;;;;;;;;;;;;14.48;100.00;97677.50;5032810;28;20366;-53
2023/03/24 10:27:33;;;;;;;;;;;;;;;15.34;100.00;97689.63;5035710;28;20266;-51
2023/03/24 10:30:03;;;;;;;;;;;;;;;16.09;100.00;97626.13;5034776;28;20368;-52
2023/03/24 10:32:28;;;;;;;;;;;;;;;14.87;100.00;97639.44;5033187;28;19975;-51
2023/03/24 10:34:55;;;;;;;;;;;;;;;14.78;100.00;97658.22;5033789;28;20532;-52
2023/03/24 10:37:20;;;;;;;;;;;;;;;15.24;100.00;97676.50;5032606;28;19921;-53
2023/03/24 10:39:46;;;;;;;;;;;;;;;16.05;100.00;97674.06;5033899;28;19917;-51
2023/03/24 10:42:13;;;;;;;;;;;;;;;16.79;100.00;97629.41;5033953;28;20046;-52
2023/03/24 10:44:38;;;;;;;;;;;;;;;15.42;100.00;97643.22;5032747;28;19916;-51
2023/03/24 10:47:04;;;;;;;;;;;;;;;15.53;100.00;97639.84;5034938;28;19939;-54
2023/03/24 10:49:30;;;;;;;;;;;;;;;15.80;100.00;97668.09;5033855;28;20357;-52
2023/03/24 10:52:00;;;;;;;;;;;;;;;15.86;100.00;97639.09;5035675;28;19924;-54
2023/03/24 10:54:27;;;;;;;;;;;;;;;15.14;100.00;97661.72;5034968;28;19917;-53
2023/03/24 10:56:59;;;;;;;;;;;;;;;14.83;100.00;97689.84;5033080;28;20472;-54
2023/03/24 10:59:44;;;;;;;;;;;;;;;15.53;100.00;97690.88;5035254;28;19912;-52
2023/03/24 11:02:10;;;;;;;;;;;;;;;14.83;100.00;97724.34;5028203;28;20425;-54
2023/03/24 11:04:35;;;;;;;;;;;;;;;15.52;100.00;97710.00;5035353;28;19921;-53
2023/03/24 11:07:04;;;;;;;;;;;;;;;15.31;100.00;97723.59;5034205;28;19923;-54
2023/03/24 11:09:37;;;;;;;;;;;;;;;15.31;100.00;97697.66;5033162;28;19925;-54
2023/03/24 11:12:03;;;;;;;;;;;;;;;15.78;100.00;97706.34;5034392;28;20432;-53
2023/03/24 11:14:28;;;;;;;;;;;;;;;15.97;100.00;97703.22;5038493;28;19929;-55
2023/03/24 11:17:15;;;;;;;;;;;;;;;15.63;100.00;97684.09;5041079;28;19920;-55
2023/03/24 11:19:53;;;;;;;;;;;;;;;16.61;100.00;97621.28;5040184;28;19917;-54
2023/03/24 11:22:19;;;;;;;;;;;;;;;18.31;100.00;97594.28;5038310;28;19919;-54
2023/03/24 11:24:44;;;;;;;;;;;;;;;17.60;100.00;97541.31;5037621;28;19913;-54
2023/03/24 11:27:11;;;;;;;;;;;;;;;17.41;100.00;97524.63;5037464;28;20321;-54
2023/03/24 11:29:37;;;;;;;;;;;;;;;17.49;100.00;97534.38;5036624;28;19916;-55
2023/03/24 11:32:04;;;;;;;;;;;;;;;16.78;100.00;97541.94;5037516;28;19992;-52
2023/03/24 11:34:41;;;;;;;;;;;;;;;17.46;100.00;97513.84;5037326;28;19916;-54
2023/03/24 11:37:12;;;;;;;;;;;;;;;16.60;100.00;97542.47;5038959;28;19967;-54
2023/03/24 11:39:38;;;;;;;;;;;;;;;17.64;100.00;97546.13;5037798;28;20088;-54
2023/03/24 11:42:04;;;;;;;;;;;;;;;17.51;100.00;97535.91;5038408;28;19924;-53
2023/03/24 11:44:50;;;;;;;;;;;;;;;18.22;100.00;97508.25;5037310;28;19917;-54
2023/03/24 11:47:17;;;;;;;;;;;;;;;16.79;100.00;97561.81;5038658;28;19994;-56
2023/03/24 11:49:47;;;;;;;;;;;;;;;18.62;100.00;97513.41;5036854;28;19923;-55
2023/03/24 11:52:32;;;;;;;;;;;;;;;17.87;100.00;97502.53;5036122;28;19927;-54
2023/03/24 11:54:58;;;;;;;;;;;;;;;16.52;100.00;97550.06;5036761;28;19921;-55
2023/03/24 11:57:46;;;;;;;;;;;;;;;15.97;100.00;97559.59;5038043;28;19923;-54
2023/03/24 12:00:15;;;;;;;;;;;;;;;15.99;100.00;97589.69;5029564;28;20485;-55
2023/03/24 12:02:55;;;;;;;;;;;;;;;15.66;100.00;97590.44;5038249;28;19916;-54
2023/03/24 12:05:35;;;;;;;;;;;;;;;15.48;100.00;97611.59;5036667;28;20143;-53
2023/03/24 12:08:19;;;;;;;;;;;;;;;15.17;100.00;97618.25;5036432;28;19963;-55
2023/03/24 12:11:03;;;;;;;;;;;;;;;15.79;100.00;97622.34;5038139;28;19927;-55
2023/03/24 12:13:32;;;;;;;;;;;;;;;16.51;100.00;97602.97;5036521;28;19928;-54
2023/03/24 12:16:05;;;;;;;;;;;;;;;17.21;100.00;97578.31;5037378;28;20004;-54
2023/03/24 12:18:42;;;;;;;;;;;;;;;16.72;100.00;97561.47;5037113;28;20374;-54
2023/03/24 12:21:13;;;;;;;;;;;;;;;15.71;100.00;97593.53;5035938;28;19982;-54
2023/03/24 12:23:43;;;;;;;;;;;;;;;17.24;100.00;97585.03;5036112;28;20389;-54
2023/03/24 12:26:13;;;;;;;;;;;;;;;15.96;100.00;97570.91;5034862;28;19912;-54
2023/03/24 12:28:54;;;;;;;;;;;;;;;15.79;100.00;97567.81;5036367;28;19916;-53
2023/03/24 12:31:19;;;;;;;;;;;;;;;15.95;100.00;97584.84;5036908;28;19924;-55
2023/03/24 12:33:51;;;;;;;;;;;;;;;16.12;100.00;97581.75;5036390;28;20674;-53
2023/03/24 12:36:30;;;;;;;;;;;;;;;15.85;100.00;97569.97;5037676;28;19917;-55
2023/03/24 12:39:00;;;;;;;;;;;;;;;15.47;100.00;97572.81;5037505;28;20442;-57
2023/03/24 12:41:31;;;;;;;;;;;;;;;15.87;100.00;97557.69;5037157;28;20027;-55
2023/03/24 12:44:11;;;;;;;;;;;;;;;16.34;100.00;97570.53;5034786;28;20452;-54